createdAt,value
2023-01-19T00:00:59.751Z,87.52
2023-01-19T00:03:26.536Z,87.51
2023-01-19T00:05:53.157Z,88.33
2023-01-19T00:08:19.819Z,87.75
2023-01-19T00:10:51.287Z,87.76
2023-01-19T00:13:18.223Z,88.39
2023-01-19T00:15:45.453Z,88.39
2023-01-19T00:18:12.258Z,88.74
2023-01-19T00:20:42.375Z,88.07
2023-01-19T00:23:11.546Z,88.00
2023-01-19T00:25:42.691Z,88.43
2023-01-19T00:28:14.987Z,88.14
2023-01-19T00:30:42.623Z,87.88
2023-01-19T00:33:14.647Z,88.65
2023-01-19T00:35:42.764Z,88.55
2023-01-19T00:38:10.754Z,88.17
2023-01-19T00:40:37.389Z,87.82
2023-01-19T00:43:06.591Z,88.90
2023-01-19T00:45:34.077Z,88.09
2023-01-19T00:48:01.588Z,88.11
2023-01-19T00:50:30.496Z,88.73
2023-01-19T00:53:01.467Z,88.19
2023-01-19T00:55:29.431Z,88.37
2023-01-19T00:57:56.501Z,88.17
2023-01-19T01:00:24.096Z,88.03
2023-01-19T01:02:52.572Z,88.69
2023-01-19T01:05:20.317Z,88.16
2023-01-19T01:07:49.649Z,88.06
2023-01-19T01:10:23.707Z,88.79
2023-01-19T01:12:56.055Z,88.20
2023-01-19T01:15:27.704Z,88.23
2023-01-19T01:17:57.219Z,88.46
2023-01-19T01:20:28.145Z,88.17
2023-01-19T01:22:55.919Z,88.51
2023-01-19T01:25:24.114Z,87.75
2023-01-19T01:27:51.402Z,88.08
2023-01-19T01:30:21.353Z,88.43
2023-01-19T01:32:48.172Z,88.83
2023-01-19T01:35:16.398Z,87.82
2023-01-19T01:37:46.261Z,88.38
2023-01-19T01:40:15.383Z,88.21
2023-01-19T01:42:43.039Z,88.35
2023-01-19T01:45:30.450Z,87.82
2023-01-19T01:48:10.480Z,87.87
2023-01-19T01:51:07.683Z,88.30
2023-01-19T01:53:36.399Z,87.62
2023-01-19T01:56:09.201Z,88.25
2023-01-19T01:58:37.847Z,88.56
2023-01-19T02:01:25.238Z,88.35
2023-01-19T02:03:57.521Z,88.28
2023-01-19T02:06:24.680Z,88.50
2023-01-19T02:09:21.343Z,88.60
2023-01-19T02:12:09.563Z,88.64
2023-01-19T02:14:38.924Z,88.59
2023-01-19T02:17:07.073Z,89.12
2023-01-19T02:19:41.602Z,88.26
2023-01-19T02:22:29.911Z,88.96
2023-01-19T02:24:56.843Z,88.74
2023-01-19T02:27:25.880Z,88.69
2023-01-19T02:29:53.447Z,88.65
2023-01-19T02:32:20.127Z,88.81
2023-01-19T02:34:46.893Z,88.71
2023-01-19T02:37:17.154Z,88.76
2023-01-19T02:39:50.922Z,88.41
2023-01-19T02:42:23.243Z,88.80
2023-01-19T02:44:53.429Z,88.99
2023-01-19T02:47:20.075Z,88.59
2023-01-19T02:49:57.372Z,88.35
2023-01-19T02:52:24.643Z,88.97
2023-01-19T02:54:56.163Z,88.89
2023-01-19T02:57:40.134Z,89.03
2023-01-19T03:00:28.207Z,89.41
2023-01-19T03:03:23.389Z,89.42
2023-01-19T03:05:54.937Z,88.27
2023-01-19T03:08:39.750Z,89.20
2023-01-19T03:11:10.488Z,89.11
2023-01-19T03:13:50.155Z,88.99
2023-01-19T03:16:30.406Z,89.36
2023-01-19T03:19:06.359Z,88.84
2023-01-19T03:21:35.826Z,88.97
2023-01-19T03:24:04.896Z,88.88
2023-01-19T03:26:40.025Z,89.22
2023-01-19T03:29:10.257Z,89.22
2023-01-19T03:31:37.959Z,88.66
2023-01-19T03:34:13.534Z,89.15
2023-01-19T03:36:53.889Z,89.51
2023-01-19T03:39:27.365Z,88.97
2023-01-19T03:42:01.794Z,89.27
2023-01-19T03:44:31.347Z,89.14
2023-01-19T03:47:02.018Z,88.86
2023-01-19T03:49:31.523Z,89.72
2023-01-19T03:51:59.320Z,89.33
2023-01-19T03:54:26.283Z,89.36
2023-01-19T03:56:52.934Z,89.42
2023-01-19T03:59:20.111Z,89.70
2023-01-19T04:01:47.292Z,89.31
2023-01-19T04:04:17.260Z,89.68
2023-01-19T04:06:44.248Z,89.54
2023-01-19T04:09:13.139Z,89.37
2023-01-19T04:11:39.714Z,89.76
2023-01-19T04:14:08.385Z,89.73
2023-01-19T04:16:35.556Z,89.06
2023-01-19T04:19:02.179Z,89.70
2023-01-19T04:21:31.201Z,89.69
2023-01-19T04:23:59.231Z,89.94
2023-01-19T04:26:28.595Z,89.06
2023-01-19T04:28:55.206Z,89.34
2023-01-19T04:31:23.341Z,88.95
2023-01-19T04:33:50.517Z,89.66
2023-01-19T04:36:19.590Z,88.83
2023-01-19T04:38:49.262Z,89.45
2023-01-19T04:41:16.326Z,89.42
2023-01-19T04:43:45.366Z,89.77
2023-01-19T04:46:12.053Z,89.19
2023-01-19T04:48:40.594Z,89.48
2023-01-19T04:51:09.065Z,89.65
2023-01-19T04:53:36.476Z,89.63
2023-01-19T04:56:03.157Z,90.21
2023-01-19T04:58:30.290Z,90.21
2023-01-19T05:00:56.925Z,90.18
2023-01-19T05:03:25.610Z,90.23
2023-01-19T05:05:56.310Z,90.22
2023-01-19T05:08:23.108Z,90.52
2023-01-19T05:10:52.455Z,89.69
2023-01-19T05:13:21.501Z,90.53
2023-01-19T05:15:48.163Z,90.64
2023-01-19T05:18:15.247Z,90.37
2023-01-19T05:20:41.913Z,90.37
2023-01-19T05:23:08.445Z,90.67
2023-01-19T05:25:35.152Z,90.17
2023-01-19T05:28:02.995Z,90.82
2023-01-19T05:30:31.962Z,90.32
2023-01-19T05:32:59.076Z,90.87
2023-01-19T05:35:35.195Z,90.62
2023-01-19T05:38:02.708Z,90.44
2023-01-19T05:40:29.328Z,91.23
2023-01-19T05:43:00.223Z,90.51
2023-01-19T05:45:29.883Z,90.88
2023-01-19T05:47:56.622Z,91.00
2023-01-19T05:50:23.575Z,91.05
2023-01-19T05:52:53.317Z,90.80
2023-01-19T05:55:21.358Z,91.25
2023-01-19T05:59:19.263Z,90.96
2023-01-19T06:00:48.540Z,90.53
2023-01-19T06:03:15.283Z,91.33
2023-01-19T06:05:41.857Z,91.37
2023-01-19T06:08:08.810Z,91.12
2023-01-19T06:10:38.045Z,90.84
2023-01-19T06:13:11.281Z,91.15
2023-01-19T06:15:38.207Z,90.82
2023-01-19T06:18:05.181Z,90.93
2023-01-19T06:20:31.850Z,91.42
2023-01-19T06:22:58.978Z,90.91
2023-01-19T06:25:26.081Z,90.85
2023-01-19T06:27:52.860Z,90.96
2023-01-19T06:30:19.926Z,91.26
2023-01-19T06:32:47.544Z,91.45
2023-01-19T06:35:14.517Z,91.19
2023-01-19T06:37:41.154Z,91.31
2023-01-19T06:40:14.322Z,91.34
2023-01-19T06:42:41.200Z,91.13
2023-01-19T06:45:10.208Z,91.31
2023-01-19T06:47:37.087Z,91.79
2023-01-19T06:50:06.032Z,91.28
2023-01-19T06:52:42.404Z,91.20
2023-01-19T06:55:13.928Z,91.15
2023-01-19T06:57:40.807Z,91.80
2023-01-19T07:00:10.092Z,91.53
2023-01-19T07:02:42.705Z,91.52
2023-01-19T07:05:10.544Z,91.33
2023-01-19T07:07:39.771Z,91.17
2023-01-19T07:10:08.297Z,91.22
2023-01-19T07:12:35.630Z,92.16
2023-01-19T07:15:02.539Z,91.72
2023-01-19T07:17:29.338Z,92.12
2023-01-19T07:19:55.949Z,91.87
2023-01-19T07:22:22.546Z,92.65
2023-01-19T07:24:51.641Z,91.87
2023-01-19T07:27:18.215Z,92.13
2023-01-19T07:29:45.022Z,92.30
2023-01-19T07:32:14.993Z,92.13
2023-01-19T07:34:44.103Z,92.38
2023-01-19T07:37:13.499Z,91.79
2023-01-19T07:39:40.162Z,91.57
2023-01-19T07:42:07.387Z,92.08
2023-01-19T07:44:34.301Z,91.95
2023-01-19T07:47:01.125Z,92.18
2023-01-19T07:49:32.471Z,91.61
2023-01-19T07:51:59.406Z,92.14
2023-01-19T07:54:26.149Z,92.23
2023-01-19T07:56:55.837Z,92.16
2023-01-19T07:59:22.847Z,92.51
2023-01-19T08:01:53.660Z,91.81
2023-01-19T08:04:20.947Z,92.13
2023-01-19T08:06:48.211Z,92.13
2023-01-19T08:09:18.344Z,92.48
2023-01-19T08:11:44.973Z,92.40
2023-01-19T08:14:15.739Z,92.37
2023-01-19T08:16:42.471Z,92.50
2023-01-19T08:19:09.600Z,92.30
2023-01-19T08:21:36.685Z,92.22
2023-01-19T08:24:03.492Z,91.76
2023-01-19T08:26:35.789Z,91.78
2023-01-19T08:29:06.195Z,91.33
2023-01-19T08:31:35.623Z,91.63
2023-01-19T08:34:05.914Z,91.50
2023-01-19T08:36:32.873Z,91.55
2023-01-19T08:38:59.510Z,91.49
2023-01-19T08:41:28.975Z,91.64
2023-01-19T08:43:55.779Z,92.04
2023-01-19T08:46:22.397Z,91.51
2023-01-19T08:48:49.564Z,91.68
2023-01-19T08:51:17.568Z,91.98
2023-01-19T08:53:46.684Z,91.99
2023-01-19T08:56:14.424Z,92.27
2023-01-19T08:58:46.703Z,92.27
2023-01-19T09:01:17.287Z,92.15
2023-01-19T09:03:44.451Z,91.90
2023-01-19T09:06:17.349Z,91.31
2023-01-19T09:08:47.175Z,91.56
2023-01-19T09:11:17.698Z,91.02
2023-01-19T09:13:44.703Z,90.83
2023-01-19T09:16:13.431Z,91.01
2023-01-19T09:18:40.583Z,90.92
2023-01-19T09:21:08.323Z,91.16
2023-01-19T09:23:34.942Z,91.25
2023-01-19T09:26:03.487Z,91.61
2023-01-19T09:28:30.213Z,90.88
2023-01-19T09:30:59.620Z,90.98
2023-01-19T09:33:28.978Z,90.13
2023-01-19T09:35:58.116Z,90.55
2023-01-19T09:38:25.972Z,91.08
2023-01-19T09:40:58.979Z,89.83
2023-01-19T09:43:43.103Z,90.73
2023-01-19T09:46:20.337Z,89.86
2023-01-19T09:48:58.546Z,89.43
2023-01-19T09:51:29.193Z,89.08
2023-01-19T09:54:20.846Z,89.25
2023-01-19T09:56:52.385Z,89.07
2023-01-19T09:59:24.669Z,89.21
2023-01-19T10:02:29.007Z,89.09
2023-01-19T10:05:05.482Z,88.34
2023-01-19T10:07:53.429Z,88.83
2023-01-19T10:10:27.235Z,88.79
2023-01-19T10:13:26.235Z,88.58
2023-01-19T10:16:05.044Z,88.71
2023-01-19T10:18:48.324Z,88.43
2023-01-19T10:21:33.654Z,89.39
2023-01-19T10:24:19.819Z,89.45
2023-01-19T10:26:49.962Z,88.90
2023-01-19T10:29:29.240Z,89.10
2023-01-19T10:32:10.181Z,89.38
2023-01-19T10:34:37.147Z,88.84
2023-01-19T10:37:22.118Z,89.10
2023-01-19T10:40:02.846Z,89.26
2023-01-19T10:42:31.174Z,89.08
2023-01-19T10:44:58.531Z,89.51
2023-01-19T10:47:34.153Z,89.15
2023-01-19T10:50:08.435Z,90.19
2023-01-19T10:52:39.860Z,89.83
2023-01-19T10:55:25.100Z,90.28
2023-01-19T10:57:53.670Z,90.18
2023-01-19T11:00:39.234Z,89.79
2023-01-19T11:03:31.550Z,90.42
2023-01-19T11:06:13.863Z,90.53
2023-01-19T11:08:41.192Z,90.24
2023-01-19T11:11:09.134Z,89.96
2023-01-19T11:13:36.725Z,90.49
2023-01-19T11:16:14.944Z,90.38
2023-01-19T11:18:45.116Z,90.09
2023-01-19T11:21:14.017Z,90.54
2023-01-19T11:23:51.666Z,90.13
2023-01-19T11:26:25.707Z,89.98
2023-01-19T11:28:56.332Z,90.23
2023-01-19T11:31:29.610Z,90.55
2023-01-19T11:33:59.849Z,90.16
2023-01-19T11:36:36.720Z,90.20
2023-01-19T11:39:15.167Z,89.70
2023-01-19T11:41:41.978Z,90.05
2023-01-19T11:44:35.358Z,89.36
2023-01-19T11:47:27.646Z,89.33
2023-01-19T11:50:06.612Z,89.91
2023-01-19T11:52:42.312Z,90.00
2023-01-19T11:55:38.920Z,89.81
2023-01-19T11:58:06.153Z,89.31
2023-01-19T12:00:38.288Z,89.56
2023-01-19T12:03:10.022Z,89.14
2023-01-19T12:05:48.033Z,88.99
2023-01-19T12:08:30.954Z,88.98
2023-01-19T12:11:00.024Z,89.34
2023-01-19T12:13:28.031Z,89.05
2023-01-19T12:16:03.136Z,89.44
2023-01-19T12:18:38.905Z,89.19
2023-01-19T12:21:05.734Z,88.86
2023-01-19T12:23:55.655Z,88.79
2023-01-19T12:26:34.419Z,88.89
2023-01-19T12:29:14.138Z,88.51
2023-01-19T12:31:43.128Z,88.65
2023-01-19T12:34:31.709Z,88.54
2023-01-19T12:37:04.239Z,88.63
2023-01-19T12:39:33.390Z,88.17
2023-01-19T12:42:06.169Z,88.29
2023-01-19T12:44:34.538Z,88.00
2023-01-19T12:47:10.306Z,87.59
2023-01-19T12:49:53.872Z,87.64
2023-01-19T12:52:35.613Z,87.48
2023-01-19T12:55:23.276Z,88.09
2023-01-19T12:58:08.370Z,87.78
2023-01-19T13:00:37.797Z,87.57
2023-01-19T13:03:24.349Z,87.57
2023-01-19T13:05:57.496Z,87.51
2023-01-19T13:08:30.686Z,87.68
2023-01-19T13:11:03.300Z,87.69
2023-01-19T13:13:38.304Z,87.93
2023-01-19T13:16:30.688Z,87.88
2023-01-19T13:19:06.580Z,87.52
2023-01-19T13:21:42.414Z,87.64
2023-01-19T13:24:22.454Z,87.86
2023-01-19T13:26:49.251Z,87.56
2023-01-19T13:29:41.754Z,87.45
2023-01-19T13:32:18.945Z,87.48
2023-01-19T13:34:51.992Z,87.47
2023-01-19T13:37:22.663Z,87.78
2023-01-19T13:39:53.347Z,88.02
2023-01-19T13:42:39.608Z,88.04
2023-01-19T13:45:29.336Z,89.10
2023-01-19T13:47:58.796Z,88.97
2023-01-19T13:50:27.021Z,89.26
2023-01-19T13:52:55.701Z,88.99
2023-01-19T13:55:24.624Z,89.57
2023-01-19T13:57:54.321Z,89.45
2023-01-19T14:00:28.452Z,89.49
2023-01-19T14:02:59.458Z,89.26
2023-01-19T14:05:35.619Z,89.48
2023-01-19T14:08:08.233Z,89.48
2023-01-19T14:10:36.478Z,89.53
2023-01-19T14:13:06.219Z,88.99
2023-01-19T14:15:35.078Z,89.25
2023-01-19T14:18:28.535Z,89.17
2023-01-19T14:21:03.595Z,88.88
2023-01-19T14:23:45.995Z,89.10
2023-01-19T14:26:37.711Z,88.40
2023-01-19T14:29:19.897Z,88.75
2023-01-19T14:31:50.066Z,88.99
2023-01-19T14:34:39.286Z,88.75
2023-01-19T14:37:30.661Z,88.98
2023-01-19T14:40:08.334Z,88.97
2023-01-19T14:42:41.647Z,88.47
2023-01-19T14:45:35.397Z,89.07
2023-01-19T14:48:07.218Z,89.25
2023-01-19T14:50:37.488Z,88.63
2023-01-19T14:53:17.023Z,88.66
2023-01-19T14:55:51.020Z,88.82
2023-01-19T14:58:19.947Z,88.89
2023-01-19T15:00:50.069Z,88.91
2023-01-19T15:03:17.009Z,88.61
2023-01-19T15:05:47.068Z,88.99
2023-01-19T15:08:34.714Z,88.98
2023-01-19T15:11:10.794Z,88.48
2023-01-19T15:13:39.177Z,88.78
2023-01-19T15:16:06.921Z,88.98
2023-01-19T15:18:33.672Z,88.99
2023-01-19T15:21:03.004Z,89.30
2023-01-19T15:23:31.257Z,89.54
2023-01-19T15:26:04.942Z,88.92
2023-01-19T15:28:32.193Z,89.44
2023-01-19T15:31:02.541Z,89.39
2023-01-19T15:33:33.183Z,89.20
2023-01-19T15:36:02.434Z,89.46
2023-01-19T15:38:29.352Z,89.82
2023-01-19T15:40:58.739Z,90.31
2023-01-19T15:43:28.613Z,90.50
2023-01-19T15:46:02.609Z,90.40
2023-01-19T15:48:29.462Z,90.84
2023-01-19T15:50:57.132Z,91.02
2023-01-19T15:53:24.664Z,91.63
2023-01-19T15:56:06.978Z,91.52
2023-01-19T15:58:33.777Z,91.63
2023-01-19T16:01:00.539Z,91.73
2023-01-19T16:03:27.520Z,92.15
2023-01-19T16:05:54.327Z,92.08
2023-01-19T16:08:22.141Z,92.25
2023-01-19T16:10:48.803Z,92.00
2023-01-19T16:13:18.207Z,92.17
2023-01-19T16:15:45.058Z,92.13
2023-01-19T16:18:11.831Z,92.14
2023-01-19T16:20:38.527Z,92.64
2023-01-19T16:23:20.618Z,92.74
2023-01-19T16:25:59.594Z,92.79
2023-01-19T16:28:27.180Z,92.88
2023-01-19T16:30:54.181Z,92.97
2023-01-19T16:33:20.835Z,92.56
2023-01-19T16:35:49.885Z,93.17
2023-01-19T16:38:16.750Z,93.21
2023-01-19T16:40:47.700Z,93.27
2023-01-19T16:43:15.246Z,92.99
2023-01-19T16:46:02.760Z,93.06
2023-01-19T16:48:29.906Z,92.61
2023-01-19T16:51:03.329Z,93.10
2023-01-19T16:53:37.133Z,92.97
2023-01-19T16:56:07.629Z,93.24
2023-01-19T16:58:42.879Z,93.38
2023-01-19T17:01:15.032Z,93.15
2023-01-19T17:03:42.271Z,93.59
2023-01-19T17:06:12.300Z,93.88
2023-01-19T17:08:39.588Z,93.59
2023-01-19T17:11:12.528Z,93.06
2023-01-19T17:13:39.655Z,93.99
2023-01-19T17:16:09.644Z,94.10
2023-01-19T17:18:38.260Z,93.78
2023-01-19T17:21:09.538Z,93.39
2023-01-19T17:23:37.585Z,93.98
2023-01-19T17:26:05.099Z,94.04
2023-01-19T17:28:34.475Z,93.79
2023-01-19T17:31:09.469Z,93.81
2023-01-19T17:33:39.328Z,94.17
2023-01-19T17:36:13.089Z,93.41
2023-01-19T17:38:40.370Z,94.15
2023-01-19T17:41:14.949Z,94.40
2023-01-19T17:43:41.974Z,94.21
2023-01-19T17:46:09.178Z,94.73
2023-01-19T17:48:35.903Z,94.47
2023-01-19T17:51:09.839Z,94.28
2023-01-19T17:53:38.055Z,94.36
2023-01-19T17:56:10.907Z,94.51
2023-01-19T17:58:38.320Z,94.43
2023-01-19T18:01:25.250Z,94.82
2023-01-19T18:03:53.060Z,93.83
2023-01-19T18:06:20.161Z,94.17
2023-01-19T18:08:47.952Z,94.43
2023-01-19T18:11:16.583Z,94.15
2023-01-19T18:13:45.317Z,94.16
2023-01-19T18:16:21.437Z,94.60
2023-01-19T18:18:50.007Z,94.77
2023-01-19T18:21:17.761Z,94.11
2023-01-19T18:23:45.230Z,94.36
2023-01-19T18:26:19.979Z,95.48
2023-01-19T18:28:47.878Z,94.38
2023-01-19T18:31:17.852Z,94.41
2023-01-19T18:33:44.829Z,94.62
2023-01-19T18:36:11.901Z,94.65
2023-01-19T18:38:39.191Z,94.53
2023-01-19T18:41:08.686Z,94.26
2023-01-19T18:43:35.385Z,94.21
2023-01-19T18:46:02.714Z,94.40
2023-01-19T18:48:30.063Z,94.61
2023-01-19T18:50:57.078Z,94.28
2023-01-19T18:53:24.290Z,94.49
2023-01-19T18:55:57.448Z,94.69
2023-01-19T18:58:24.693Z,94.46
2023-01-19T19:00:51.436Z,94.71
2023-01-19T19:03:18.296Z,94.73
2023-01-19T19:05:45.238Z,95.03
2023-01-19T19:08:14.285Z,94.66
2023-01-19T19:10:42.303Z,95.01
2023-01-19T19:13:12.118Z,94.82
2023-01-19T19:15:38.909Z,95.04
2023-01-19T19:18:05.991Z,95.32
2023-01-19T19:20:38.220Z,95.06
2023-01-19T19:23:07.395Z,95.04
2023-01-19T19:25:34.081Z,94.75
2023-01-19T19:28:01.116Z,94.75
2023-01-19T19:30:28.361Z,94.52
2023-01-19T19:32:59.075Z,94.74
2023-01-19T19:35:26.599Z,94.61
2023-01-19T19:37:57.844Z,95.09
2023-01-19T19:40:30.477Z,95.22
2023-01-19T19:42:58.841Z,94.92
2023-01-19T19:45:25.668Z,94.83
2023-01-19T19:47:52.377Z,95.33
2023-01-19T19:50:19.329Z,95.09
2023-01-19T19:52:46.102Z,94.93
2023-01-19T19:55:12.849Z,95.40
2023-01-19T19:57:39.748Z,94.86
2023-01-19T20:00:09.607Z,95.39
2023-01-19T20:02:36.766Z,95.07
2023-01-19T20:05:04.577Z,95.35
2023-01-19T20:07:31.350Z,95.23
2023-01-19T20:09:58.062Z,95.37
2023-01-19T20:12:25.081Z,95.42
2023-01-19T20:14:51.685Z,95.62
2023-01-19T20:17:19.096Z,95.25
2023-01-19T20:19:47.706Z,95.37
2023-01-19T20:22:14.581Z,95.33
2023-01-19T20:24:41.161Z,95.43
2023-01-19T20:27:10.576Z,95.48
2023-01-19T20:29:37.259Z,95.46
2023-01-19T20:32:06.625Z,95.32
2023-01-19T20:34:35.658Z,94.99
2023-01-19T20:37:07.124Z,94.97
2023-01-19T20:39:39.837Z,94.97
2023-01-19T20:42:11.359Z,94.01
2023-01-19T20:44:38.283Z,94.04
2023-01-19T20:47:09.283Z,94.23
2023-01-19T20:49:38.649Z,94.08
2023-01-19T20:52:05.255Z,93.71
2023-01-19T20:54:31.894Z,94.00
2023-01-19T20:56:59.856Z,93.59
2023-01-19T20:59:27.237Z,93.38
2023-01-19T21:01:54.525Z,93.49
2023-01-19T21:04:22.396Z,93.63
2023-01-19T21:06:49.864Z,93.31
2023-01-19T21:09:18.670Z,93.89
2023-01-19T21:11:45.991Z,93.75
2023-01-19T21:14:12.836Z,93.09
2023-01-19T21:16:39.537Z,93.95
2023-01-19T21:19:06.742Z,93.52
2023-01-19T21:21:35.671Z,93.63
2023-01-19T21:24:04.163Z,93.60
2023-01-19T21:26:31.578Z,93.79
2023-01-19T21:28:59.862Z,93.93
2023-01-19T21:31:27.919Z,93.32
2023-01-19T21:33:54.956Z,93.72
2023-01-19T21:36:25.104Z,93.61
2023-01-19T21:38:55.693Z,93.33
2023-01-19T21:41:24.862Z,93.83
2023-01-19T21:43:51.631Z,93.91
2023-01-19T21:46:20.524Z,92.98
2023-01-19T21:48:50.446Z,93.82
2023-01-19T21:51:23.436Z,93.27
2023-01-19T21:53:52.266Z,93.42
2023-01-19T21:56:18.925Z,93.19
2023-01-19T21:58:47.450Z,93.25
2023-01-19T22:01:14.346Z,93.69
2023-01-19T22:03:47.146Z,93.38
2023-01-19T22:06:14.913Z,93.31
2023-01-19T22:08:41.952Z,93.63
2023-01-19T22:11:11.960Z,93.57
2023-01-19T22:13:41.908Z,93.54
2023-01-19T22:16:11.707Z,93.22
2023-01-19T22:18:41.089Z,93.45
2023-01-19T22:21:22.003Z,93.21
2023-01-19T22:23:51.525Z,93.35
2023-01-19T22:26:18.675Z,92.71
2023-01-19T22:28:45.641Z,93.11
2023-01-19T22:31:17.603Z,93.31
2023-01-19T22:33:49.121Z,93.70
2023-01-19T22:36:27.672Z,93.40
2023-01-19T22:38:59.005Z,92.86
2023-01-19T22:41:28.468Z,93.33
2023-01-19T22:43:59.485Z,92.76
2023-01-19T22:46:29.083Z,93.32
2023-01-19T22:48:56.689Z,93.42
2023-01-19T22:51:26.781Z,93.39
2023-01-19T22:53:53.563Z,92.72
2023-01-19T22:56:25.485Z,92.99
2023-01-19T22:58:52.593Z,93.61
2023-01-19T23:01:22.213Z,93.87
2023-01-19T23:03:49.139Z,94.03
2023-01-19T23:06:18.563Z,93.60
2023-01-19T23:08:45.625Z,94.38
2023-01-19T23:11:22.663Z,93.90
2023-01-19T23:13:50.346Z,94.39
2023-01-19T23:16:20.382Z,94.14
2023-01-19T23:18:47.766Z,94.62
2023-01-19T23:21:19.089Z,94.21
2023-01-19T23:23:46.440Z,94.38
2023-01-19T23:26:15.683Z,94.16
2023-01-19T23:28:43.403Z,94.71
2023-01-19T23:31:24.678Z,94.18
2023-01-19T23:33:56.695Z,94.69
2023-01-19T23:36:25.262Z,94.11
2023-01-19T23:38:53.759Z,94.41
2023-01-19T23:41:21.206Z,94.32
2023-01-19T23:43:48.286Z,93.89
2023-01-19T23:46:15.984Z,93.79
2023-01-19T23:48:42.816Z,94.03
2023-01-19T23:51:12.705Z,93.94
2023-01-19T23:53:42.245Z,93.94
2023-01-19T23:56:30.709Z,93.81
2023-01-19T23:59:10.769Z,93.86
